createdAt,value
2024-03-04T00:01:33.104Z,10.18
2024-03-04T00:07:53.381Z,10.12
2024-03-04T00:13:59.390Z,10.06
2024-03-04T00:19:23.778Z,10.11
2024-03-04T00:21:59.572Z,10.16
2024-03-04T00:24:41.251Z,10.16
2024-03-04T00:27:17.631Z,10.20
2024-03-04T00:29:52.656Z,10.23
2024-03-04T00:35:21.330Z,10.29
2024-03-04T00:38:08.598Z,10.28
2024-03-04T00:41:09.607Z,10.30
2024-03-04T00:44:00.524Z,10.32
2024-03-04T00:46:35.216Z,10.32
2024-03-04T00:49:14.865Z,10.33
2024-03-04T00:51:49.583Z,10.31
2024-03-04T00:54:23.994Z,10.31
2024-03-04T00:56:59.664Z,10.35
2024-03-04T00:59:34.449Z,10.34
2024-03-04T01:02:14.193Z,10.38
2024-03-04T01:04:52.210Z,10.37
2024-03-04T01:07:28.981Z,10.33
2024-03-04T01:10:03.482Z,10.29
2024-03-04T01:12:38.405Z,10.25
2024-03-04T01:15:35.840Z,10.28
2024-03-04T01:18:34.338Z,10.25
2024-03-04T01:21:08.463Z,10.28
2024-03-04T01:23:42.846Z,10.29
2024-03-04T01:26:20.291Z,10.25
2024-03-04T01:28:54.830Z,10.24
2024-03-04T01:34:48.741Z,10.28
2024-03-04T01:37:23.318Z,10.27
2024-03-04T01:39:55.927Z,10.28
2024-03-04T01:42:28.223Z,10.25
2024-03-04T01:45:00.685Z,10.22
2024-03-04T01:47:35.250Z,10.18
2024-03-04T01:50:10.295Z,10.16
2024-03-04T01:52:42.758Z,10.15
2024-03-04T01:55:16.487Z,10.06
2024-03-04T01:57:50.442Z,10.05
2024-03-04T02:00:24.701Z,10.00
2024-03-04T02:02:57.343Z,9.93
2024-03-04T02:05:30.127Z,9.95
2024-03-04T02:08:03.765Z,9.90
2024-03-04T02:10:36.252Z,9.89
2024-03-04T02:13:08.937Z,9.85
2024-03-04T02:15:41.461Z,9.80
2024-03-04T02:18:17.174Z,9.76
2024-03-04T02:20:55.933Z,9.72
2024-03-04T02:23:28.718Z,9.65
2024-03-04T02:26:01.343Z,9.62
2024-03-04T02:28:34.735Z,9.56
2024-03-04T02:31:07.653Z,9.53
2024-03-04T02:33:45.120Z,9.48
2024-03-04T02:36:19.098Z,9.39
2024-03-04T02:38:53.771Z,9.36
2024-03-04T02:41:29.244Z,9.31
2024-03-04T02:44:01.473Z,9.33
2024-03-04T02:46:33.777Z,9.32
2024-03-04T02:49:06.317Z,9.31
2024-03-04T02:51:38.632Z,9.28
2024-03-04T02:54:11.374Z,9.27
2024-03-04T02:56:44.260Z,9.25
2024-03-04T02:59:16.856Z,9.20
2024-03-04T03:01:50.123Z,9.16
2024-03-04T03:04:22.563Z,9.16
2024-03-04T03:06:54.883Z,9.11
2024-03-04T03:09:27.195Z,9.06
2024-03-04T03:12:00.934Z,9.05
2024-03-04T03:14:37.084Z,9.00
2024-03-04T03:17:09.642Z,8.95
2024-03-04T03:19:42.047Z,8.92
2024-03-04T03:22:14.629Z,8.88
2024-03-04T03:24:47.761Z,8.89
2024-03-04T03:27:20.120Z,8.81
2024-03-04T03:29:52.406Z,8.83
2024-03-04T03:32:24.812Z,8.81
2024-03-04T03:34:57.130Z,8.82
2024-03-04T03:37:29.655Z,8.79
2024-03-04T03:40:04.207Z,8.80
2024-03-04T03:42:36.883Z,8.79
2024-03-04T03:45:10.047Z,8.77
2024-03-04T03:47:42.974Z,8.79
2024-03-04T03:50:15.425Z,8.74
2024-03-04T03:52:47.838Z,8.76
2024-03-04T03:55:20.309Z,8.81
2024-03-04T03:57:58.154Z,8.78
2024-03-04T04:00:33.552Z,8.79
2024-03-04T04:03:06.297Z,8.79
2024-03-04T04:05:38.648Z,8.77
2024-03-04T04:08:10.983Z,8.77
2024-03-04T04:10:43.966Z,8.81
2024-03-04T04:13:16.997Z,8.77
2024-03-04T04:15:51.167Z,8.72
2024-03-04T04:18:24.165Z,8.72
2024-03-04T04:20:56.427Z,8.74
2024-03-04T04:23:28.851Z,8.78
2024-03-04T04:26:01.728Z,8.84
2024-03-04T04:28:34.185Z,8.78
2024-03-04T04:31:07.128Z,8.84
2024-03-04T04:33:39.427Z,8.91
2024-03-04T04:36:11.707Z,8.92
2024-03-04T04:38:45.663Z,8.93
2024-03-04T04:41:18.097Z,8.94
2024-03-04T04:43:50.508Z,9.02
2024-03-04T04:46:22.827Z,9.05
2024-03-04T04:48:55.159Z,9.02
2024-03-04T04:51:27.433Z,9.04
2024-03-04T04:54:00.113Z,9.07
2024-03-04T04:56:32.475Z,9.07
2024-03-04T04:59:04.836Z,9.12
2024-03-04T05:01:37.627Z,9.18
2024-03-04T05:04:31.220Z,9.17
2024-03-04T05:07:02.505Z,9.23
2024-03-04T05:09:35.073Z,9.26
2024-03-04T05:12:08.038Z,9.28
2024-03-04T05:14:40.517Z,9.30
2024-03-04T05:17:12.951Z,9.30
2024-03-04T05:19:45.966Z,9.32
2024-03-04T05:22:18.316Z,9.33
2024-03-04T05:24:50.824Z,9.37
2024-03-04T05:27:23.078Z,9.44
2024-03-04T05:29:56.516Z,9.45
2024-03-04T05:32:28.892Z,9.42
2024-03-04T05:35:01.298Z,9.44
2024-03-04T05:37:33.694Z,9.48
2024-03-04T05:40:11.446Z,9.52
2024-03-04T05:42:43.840Z,9.55
2024-03-04T05:45:16.280Z,9.55
2024-03-04T05:47:48.629Z,9.59
2024-03-04T05:50:21.070Z,9.64
2024-03-04T05:52:53.436Z,9.68
2024-03-04T05:55:26.756Z,9.73
2024-03-04T05:57:59.147Z,9.79
2024-03-04T06:00:33.692Z,9.84
2024-03-04T06:03:06.065Z,9.82
2024-03-04T06:05:38.409Z,9.88
2024-03-04T06:08:10.726Z,9.91
2024-03-04T06:10:43.723Z,9.92
2024-03-04T06:13:16.353Z,9.90
2024-03-04T06:15:48.717Z,9.93
2024-03-04T06:18:21.443Z,9.88
2024-03-04T06:23:42.527Z,9.95
2024-03-04T06:26:20.181Z,10.00
2024-03-04T06:28:55.323Z,9.99
2024-03-04T06:31:35.346Z,9.98
2024-03-04T06:34:23.830Z,10.06
2024-03-04T06:37:00.206Z,10.09
2024-03-04T06:39:59.618Z,10.21
2024-03-04T06:43:23.966Z,10.26
2024-03-04T06:46:01.600Z,10.22
2024-03-04T06:48:39.918Z,10.26
2024-03-04T06:51:26.040Z,10.32
2024-03-04T06:56:42.270Z,10.45
2024-03-04T06:59:19.782Z,10.50
2024-03-04T07:02:00.488Z,10.54
2024-03-04T07:08:04.644Z,10.73
2024-03-04T07:10:39.363Z,10.78
2024-03-04T07:13:16.030Z,10.81
2024-03-04T07:27:13.615Z,11.03
2024-03-04T07:30:09.749Z,11.17
2024-03-04T07:32:58.336Z,11.20
2024-03-04T07:39:36.270Z,11.44
2024-03-04T07:42:45.386Z,11.48
2024-03-04T07:46:01.477Z,11.50
2024-03-04T07:48:39.947Z,11.58
2024-03-04T07:51:15.860Z,11.62
2024-03-04T07:53:51.000Z,11.70
2024-03-04T07:56:25.926Z,11.72
2024-03-04T07:59:05.724Z,11.79
2024-03-04T08:05:12.544Z,11.76
2024-03-04T08:07:48.013Z,11.75
2024-03-04T08:10:31.728Z,11.78
2024-03-04T08:16:08.305Z,11.96
2024-03-04T08:18:52.973Z,12.07
2024-03-04T08:21:31.300Z,12.16
2024-03-04T08:24:06.450Z,12.30
2024-03-04T08:29:47.786Z,12.48
2024-03-04T08:36:26.039Z,12.69
2024-03-04T08:42:29.194Z,12.84
2024-03-04T08:45:28.935Z,12.93
2024-03-04T09:10:34.022Z,13.46
2024-03-04T09:22:50.361Z,14.06
2024-03-04T09:37:03.850Z,14.66
2024-03-04T09:44:40.171Z,14.63
2024-03-04T09:50:15.005Z,14.12
2024-03-04T09:53:11.627Z,14.09
2024-03-04T09:58:09.573Z,14.46
2024-03-04T10:01:36.823Z,14.68
2024-03-04T10:08:31.916Z,14.66
2024-03-04T10:15:24.345Z,15.11
2024-03-04T10:18:13.673Z,15.02
2024-03-04T10:20:46.272Z,14.69
2024-03-04T10:23:19.586Z,14.88
2024-03-04T10:26:11.467Z,15.41
2024-03-04T10:28:56.968Z,15.89
2024-03-04T10:34:26.286Z,18.03
2024-03-04T10:41:48.218Z,22.81
2024-03-04T10:44:30.218Z,23.82
2024-03-04T11:31:32.860Z,17.36
2024-03-04T11:42:08.564Z,16.43
2024-03-04T11:45:38.510Z,15.99
2024-03-04T11:59:13.779Z,16.25
2024-03-04T12:04:40.228Z,16.24
2024-03-04T12:07:24.587Z,16.04
2024-03-04T12:12:54.911Z,15.55
2024-03-04T12:18:12.429Z,15.44
2024-03-04T12:20:53.339Z,15.33
2024-03-04T12:23:42.792Z,15.12
2024-03-04T12:26:19.654Z,14.88
2024-03-04T12:29:09.962Z,14.51
2024-03-04T12:31:48.817Z,14.46
2024-03-04T12:40:59.837Z,14.52
2024-03-04T12:43:36.135Z,14.53
2024-03-04T12:49:38.026Z,14.60
2024-03-04T12:52:12.038Z,14.63
2024-03-04T12:54:45.494Z,14.58
2024-03-04T12:57:17.846Z,14.55
2024-03-04T12:59:51.935Z,14.56
2024-03-04T13:05:13.101Z,14.93
2024-03-04T13:10:27.398Z,15.42
2024-03-04T13:15:45.677Z,15.42
2024-03-04T13:20:51.313Z,15.34
2024-03-04T13:23:23.818Z,15.39
2024-03-04T13:25:56.822Z,15.42
2024-03-04T13:28:29.558Z,15.39
2024-03-04T13:31:02.288Z,15.42
2024-03-04T13:33:34.856Z,15.30
2024-03-04T13:36:08.265Z,15.26
2024-03-04T13:38:41.094Z,15.25
2024-03-04T13:41:13.781Z,15.18
2024-03-04T13:43:46.447Z,15.13
2024-03-04T13:46:19.201Z,15.19
2024-03-04T13:48:51.883Z,15.16
2024-03-04T13:51:24.631Z,15.13
2024-03-04T13:53:57.299Z,15.11
2024-03-04T13:56:30.071Z,15.11
2024-03-04T13:59:07.582Z,15.11
2024-03-04T14:01:40.560Z,15.20
2024-03-04T14:04:13.536Z,14.98
2024-03-04T14:06:46.397Z,15.02
2024-03-04T14:09:20.803Z,15.08
2024-03-04T14:11:53.634Z,15.01
2024-03-04T14:14:26.584Z,15.12
2024-03-04T14:16:59.908Z,15.18
2024-03-04T14:19:34.109Z,15.21
2024-03-04T14:22:10.336Z,15.18
2024-03-04T14:27:24.012Z,15.30
2024-03-04T14:30:00.513Z,15.33
2024-03-04T14:32:33.690Z,15.41
2024-03-04T14:35:06.891Z,15.36
2024-03-04T14:37:39.996Z,15.27
2024-03-04T14:40:17.679Z,15.31
2024-03-04T14:42:50.432Z,15.36
2024-03-04T14:45:24.879Z,15.32
2024-03-04T14:47:58.353Z,15.35
2024-03-04T14:50:31.269Z,15.25
2024-03-04T14:53:04.191Z,15.28
2024-03-04T14:55:36.828Z,15.21
2024-03-04T14:58:09.461Z,15.09
2024-03-04T15:00:42.196Z,15.07
2024-03-04T15:03:14.999Z,15.10
2024-03-04T15:05:47.861Z,15.09
2024-03-04T15:08:20.466Z,15.05
2024-03-04T15:10:53.401Z,15.01
2024-03-04T15:13:26.181Z,15.02
2024-03-04T15:15:59.036Z,14.96
2024-03-04T15:18:35.478Z,14.87
2024-03-04T15:21:08.600Z,14.85
2024-03-04T15:23:41.454Z,14.77
2024-03-04T15:26:14.066Z,14.64
2024-03-04T15:28:48.758Z,14.65
2024-03-04T15:31:21.498Z,14.65
2024-03-04T15:33:54.086Z,14.65
2024-03-04T15:36:32.696Z,14.66
2024-03-04T15:39:12.459Z,14.55
2024-03-04T15:41:46.254Z,14.55
2024-03-04T15:44:19.055Z,14.51
2024-03-04T15:46:54.054Z,14.47
2024-03-04T15:49:41.708Z,14.49
2024-03-04T15:52:14.256Z,14.39
2024-03-04T15:54:46.829Z,14.32
2024-03-04T15:57:19.374Z,14.31
2024-03-04T15:59:52.269Z,14.39
2024-03-04T16:02:24.878Z,14.38
2024-03-04T16:04:57.563Z,14.36
2024-03-04T16:07:30.594Z,14.25
2024-03-04T16:10:04.452Z,14.23
2024-03-04T16:12:39.040Z,14.10
2024-03-04T16:15:11.552Z,14.02
2024-03-04T16:17:43.868Z,14.00
2024-03-04T16:20:20.474Z,14.03
2024-03-04T16:22:53.449Z,13.94
2024-03-04T16:25:27.904Z,13.90
2024-03-04T16:28:05.351Z,13.92
2024-03-04T16:30:40.109Z,13.92
2024-03-04T16:33:12.621Z,13.91
2024-03-04T16:35:45.018Z,13.88
2024-03-04T16:38:19.633Z,13.88
2024-03-04T16:40:54.523Z,13.83
2024-03-04T16:43:26.902Z,13.84
2024-03-04T16:46:04.745Z,13.91
2024-03-04T16:48:37.024Z,13.84
2024-03-04T16:51:17.060Z,13.77
2024-03-04T16:53:49.560Z,13.73
2024-03-04T16:56:23.813Z,13.75
2024-03-04T16:58:56.413Z,13.59
2024-03-04T17:01:35.673Z,13.40
2024-03-04T17:04:13.248Z,13.36
2024-03-04T17:06:46.347Z,13.45
2024-03-04T17:09:19.555Z,13.36
2024-03-04T17:11:52.187Z,13.48
2024-03-04T17:14:26.812Z,13.50
2024-03-04T17:17:09.370Z,13.56
2024-03-04T17:19:42.751Z,13.60
2024-03-04T17:22:15.906Z,13.65
2024-03-04T17:24:48.923Z,13.60
2024-03-04T17:27:21.289Z,13.61
2024-03-04T17:29:53.553Z,13.57
2024-03-04T17:32:26.317Z,13.55
2024-03-04T17:34:58.897Z,13.52
2024-03-04T17:40:17.108Z,13.50
2024-03-04T17:42:56.792Z,13.55
2024-03-04T17:45:29.924Z,13.54
2024-03-04T17:48:02.559Z,13.55
2024-03-04T17:50:35.284Z,13.54
2024-03-04T17:53:07.591Z,13.55
2024-03-04T17:55:42.031Z,13.53
2024-03-04T17:58:17.453Z,13.51
2024-03-04T18:00:50.760Z,13.40
2024-03-04T18:03:23.222Z,13.28
2024-03-04T18:05:57.281Z,13.19
2024-03-04T18:08:30.796Z,13.20
2024-03-04T18:11:04.015Z,13.24
2024-03-04T18:13:37.185Z,13.23
2024-03-04T18:16:15.542Z,13.27
2024-03-04T18:18:53.058Z,13.26
2024-03-04T18:21:26.184Z,13.31
2024-03-04T18:23:58.468Z,13.36
2024-03-04T18:26:31.020Z,13.39
2024-03-04T18:29:03.785Z,13.45
2024-03-04T18:31:41.188Z,13.47
2024-03-04T18:34:22.069Z,13.49
2024-03-04T18:37:06.330Z,13.48
2024-03-04T18:40:06.477Z,13.47
2024-03-04T18:42:40.327Z,13.43
2024-03-04T18:45:13.615Z,13.35
2024-03-04T18:47:46.707Z,13.20
2024-03-04T18:50:25.053Z,13.04
2024-03-04T18:53:00.070Z,12.96
2024-03-04T18:55:34.456Z,12.89
2024-03-04T18:58:11.315Z,12.82
2024-03-04T19:00:44.297Z,12.71
2024-03-04T19:03:17.113Z,12.63
2024-03-04T19:05:50.308Z,12.57
2024-03-04T19:08:22.813Z,12.53
2024-03-04T19:11:04.878Z,12.50
2024-03-04T19:13:41.140Z,12.46
2024-03-04T19:16:13.449Z,12.43
2024-03-04T19:18:46.639Z,12.38
2024-03-04T19:21:19.603Z,12.37
2024-03-04T19:23:51.980Z,12.35
2024-03-04T19:26:24.257Z,12.37
2024-03-04T19:28:56.715Z,12.37
2024-03-04T19:31:29.614Z,12.38
2024-03-04T19:34:04.945Z,12.43
2024-03-04T19:36:43.382Z,12.53
2024-03-04T19:39:16.085Z,12.54
2024-03-04T19:41:49.315Z,12.59
2024-03-04T19:44:21.552Z,12.63
2024-03-04T19:46:53.854Z,12.67
2024-03-04T19:49:26.255Z,12.74
2024-03-04T19:51:58.691Z,12.79
2024-03-04T19:54:31.028Z,12.81
2024-03-04T19:57:04.073Z,12.84
2024-03-04T19:59:36.365Z,12.88
2024-03-04T20:02:08.656Z,12.88
2024-03-04T20:04:43.520Z,12.88
2024-03-04T20:07:18.637Z,12.89
2024-03-04T20:09:53.562Z,12.90
2024-03-04T20:12:27.285Z,12.87
2024-03-04T20:15:00.242Z,12.84
2024-03-04T20:17:32.763Z,12.85
2024-03-04T20:20:05.950Z,12.81
2024-03-04T20:22:38.157Z,12.86
2024-03-04T20:25:11.160Z,12.89
2024-03-04T20:27:43.464Z,12.86
2024-03-04T20:30:15.714Z,12.85
2024-03-04T20:32:47.898Z,12.87
2024-03-04T20:35:21.256Z,12.89
2024-03-04T20:37:53.734Z,12.89
2024-03-04T20:40:26.239Z,12.93
2024-03-04T20:42:59.055Z,12.95
2024-03-04T20:45:32.124Z,12.97
2024-03-04T20:48:06.228Z,12.99
2024-03-04T20:50:39.834Z,12.98
2024-03-04T20:53:12.116Z,12.99
2024-03-04T20:55:45.478Z,13.02
2024-03-04T21:06:31.856Z,13.02
2024-03-04T21:09:04.516Z,13.01
2024-03-04T21:11:37.029Z,13.03
2024-03-04T21:14:09.422Z,13.03
2024-03-04T21:16:43.337Z,13.04
2024-03-04T21:19:15.732Z,13.07
2024-03-04T21:21:48.006Z,13.04
2024-03-04T21:24:20.273Z,13.05
2024-03-04T21:26:53.733Z,13.04
2024-03-04T21:29:25.967Z,13.04
2024-03-04T21:32:00.297Z,12.99
2024-03-04T21:34:32.929Z,13.01
2024-03-04T21:37:09.646Z,12.89
2024-03-04T21:41:27.971Z,12.88
2024-03-04T21:44:00.374Z,12.78
2024-03-04T21:46:32.665Z,12.78
2024-03-04T21:49:06.165Z,12.81
2024-03-04T21:51:42.760Z,12.80
2024-03-04T21:54:15.571Z,12.71
2024-03-04T21:56:48.056Z,12.67
2024-03-04T21:59:20.431Z,12.68
2024-03-04T22:01:53.051Z,12.61
2024-03-04T22:04:25.656Z,12.63
2024-03-04T22:06:58.111Z,12.55
2024-03-04T22:09:31.211Z,12.54
2024-03-04T22:12:04.000Z,12.48
2024-03-04T22:14:36.468Z,12.53
2024-03-04T22:17:11.739Z,12.52
2024-03-04T22:19:44.123Z,12.48
2024-03-04T22:22:16.619Z,12.49
2024-03-04T22:24:48.935Z,12.40
2024-03-04T22:27:21.794Z,12.36
2024-03-04T22:29:54.546Z,12.38
2024-03-04T22:32:28.983Z,12.37
2024-03-04T22:35:02.195Z,12.36
2024-03-04T22:37:35.103Z,12.38
2024-03-04T22:40:12.991Z,12.39
2024-03-04T22:42:45.414Z,12.43
2024-03-04T22:45:17.849Z,12.35
2024-03-04T22:47:51.146Z,12.34
2024-03-04T22:50:23.741Z,12.29
2024-03-04T22:52:56.286Z,12.25
2024-03-04T22:55:28.690Z,12.22
2024-03-04T22:58:01.143Z,12.24
2024-03-04T23:00:39.901Z,12.15
2024-03-04T23:03:12.419Z,12.10
2024-03-04T23:05:45.575Z,12.10
2024-03-04T23:08:17.903Z,12.13
2024-03-04T23:13:45.511Z,12.08
2024-03-04T23:16:17.919Z,12.04
2024-03-04T23:18:50.302Z,12.06
2024-03-04T23:24:03.138Z,11.93
2024-03-04T23:26:35.860Z,11.89
2024-03-04T23:29:08.213Z,11.86
2024-03-04T23:31:40.508Z,11.81
2024-03-04T23:34:13.138Z,11.87
2024-03-04T23:36:51.374Z,11.86
2024-03-04T23:42:10.622Z,11.83
2024-03-04T23:44:43.163Z,11.80
2024-03-04T23:47:15.517Z,11.82
2024-03-04T23:49:47.958Z,11.76
2024-03-04T23:52:21.736Z,11.70
2024-03-04T23:54:57.245Z,11.62
2024-03-04T23:57:30.330Z,11.60
